Time;durP1;ratioP1;P1;durP2;ratioP2;P2;SDS_P1;SDS_P2;PMS_P1;PMS_P2;Temp;Humidity;BMP_temperature;BMP_pressure;BME280_temperature;BME280_humidity;BME280_pressure;Samples;Min_cycle;Max_cycle;Signal;HPM_P1;HPM_P2
2022/04/22 00:00:19;;;;;;;20.50;10.23;;;11.00;99.90;;;;;;4995399;28;20239;-82
2022/04/22 00:02:44;;;;;;;18.13;9.60;;;10.90;99.90;;;;;;4996782;28;20598;-82
2022/04/22 00:05:10;;;;;;;22.83;10.23;;;10.90;99.90;;;;;;4996189;28;20214;-82
2022/04/22 00:07:36;;;;;;;15.53;9.57;;;10.90;99.90;;;;;;4995876;28;20226;-82
2022/04/22 00:10:04;;;;;;;23.27;10.17;;;10.80;99.90;;;;;;4995941;28;20221;-82
2022/04/22 00:12:30;;;;;;;20.43;10.93;;;10.80;99.90;;;;;;4995628;28;20181;-82
2022/04/22 00:14:56;;;;;;;20.90;10.40;;;10.80;99.90;;;;;;4995733;28;20178;-82
2022/04/22 00:17:22;;;;;;;21.83;11.43;;;10.80;99.90;;;;;;4995723;28;20209;-82
2022/04/22 00:19:48;;;;;;;19.33;10.57;;;10.70;99.90;;;;;;4995780;28;20777;-84
2022/04/22 00:22:13;;;;;;;19.20;10.90;;;10.70;99.90;;;;;;4996156;28;20244;-82
2022/04/22 00:24:39;;;;;;;19.40;11.33;;;10.60;99.90;;;;;;4995988;28;20545;-82
2022/04/22 00:27:05;;;;;;;22.17;12.07;;;10.60;99.90;;;;;;4995912;28;20195;-82
2022/04/22 00:29:30;;;;;;;23.43;11.40;;;10.60;99.90;;;;;;4996639;28;20229;-82
2022/04/22 00:31:56;;;;;;;21.97;11.87;;;10.60;99.90;;;;;;4995651;28;20185;-82
2022/04/22 00:34:22;;;;;;;19.97;11.47;;;10.60;99.90;;;;;;4998239;28;20181;-83
2022/04/22 00:36:47;;;;;;;21.33;11.70;;;10.50;99.90;;;;;;4998691;28;20272;-83
2022/04/22 00:39:13;;;;;;;20.97;11.40;;;10.40;99.90;;;;;;4998845;28;20307;-85
2022/04/22 00:41:39;;;;;;;22.33;11.97;;;10.30;99.90;;;;;;4998593;28;20193;-83
2022/04/22 00:44:04;;;;;;;21.23;11.60;;;10.40;99.90;;;;;;4998513;28;20172;-83
2022/04/22 00:46:33;;;;;;;18.47;10.70;;;10.40;99.90;;;;;;4998508;28;20193;-83
2022/04/22 00:48:58;;;;;;;20.10;11.27;;;10.40;99.90;;;;;;4999907;28;20188;-84
2022/04/22 00:51:24;;;;;;;21.07;11.70;;;10.30;99.90;;;;;;4999549;28;20179;-83
2022/04/22 00:53:54;;;;;;;22.03;11.73;;;10.30;99.90;;;;;;5000544;28;20183;-83
2022/04/22 00:56:20;;;;;;;27.77;11.40;;;10.30;99.90;;;;;;4999749;28;20194;-85
2022/04/22 00:58:48;;;;;;;22.03;11.43;;;10.20;99.90;;;;;;4997396;28;20248;-81
2022/04/22 01:01:14;;;;;;;20.60;11.43;;;10.20;99.90;;;;;;4996274;28;20194;-82
2022/04/22 01:09:47;;;;;;;20.83;11.33;;;10.20;99.90;;;;;;4996787;28;20234;-82
2022/04/22 01:11:59;;;;;;;22.60;12.10;;;10.10;99.90;;;;;;5014619;28;20223;-82
2022/04/22 01:14:25;;;;;;;21.37;12.03;;;9.90;99.90;;;;;;4997000;28;20227;-82
2022/04/22 01:16:51;;;;;;;21.63;12.33;;;10.00;99.90;;;;;;4996815;28;20204;-82
2022/04/22 01:19:17;;;;;;;23.83;12.43;;;9.90;99.90;;;;;;4997382;28;20197;-82
2022/04/22 01:21:42;;;;;;;22.03;12.67;;;9.90;99.90;;;;;;4997205;28;20180;-82
2022/04/22 01:24:08;;;;;;;23.03;12.60;;;10.00;99.90;;;;;;4997044;28;20182;-82
2022/04/22 01:26:34;;;;;;;26.73;12.20;;;10.00;99.90;;;;;;4996412;28;20669;-82
2022/04/22 01:29:02;;;;;;;20.97;11.87;;;9.90;99.90;;;;;;4996550;28;20645;-82
2022/04/22 01:31:28;;;;;;;23.57;11.90;;;9.90;99.90;;;;;;4996217;28;20239;-82
2022/04/22 01:33:53;;;;;;;23.73;13.17;;;9.90;99.90;;;;;;4997470;28;20187;-82
2022/04/22 01:36:20;;;;;;;21.97;12.37;;;9.90;99.90;;;;;;4997678;28;20237;-82
2022/04/22 01:38:45;;;;;;;25.17;12.37;;;9.80;99.90;;;;;;4997693;28;20207;-82
2022/04/22 01:41:11;;;;;;;22.37;13.53;;;9.80;99.90;;;;;;4997909;28;20525;-82
2022/04/22 01:43:37;;;;;;;24.60;12.83;;;9.80;99.90;;;;;;4998333;28;20708;-82
2022/04/22 01:46:02;;;;;;;27.23;13.13;;;9.80;99.90;;;;;;5000764;28;20188;-82
2022/04/22 01:48:30;;;;;;;28.47;13.80;;;9.80;99.90;;;;;;5001918;28;20177;-82
2022/04/22 01:50:56;;;;;;;30.30;14.60;;;9.80;99.90;;;;;;5001495;28;20179;-82
2022/04/22 01:53:22;;;;;;;30.00;13.13;;;9.80;99.90;;;;;;5001219;28;20714;-82
2022/04/22 01:55:48;;;;;;;29.63;14.40;;;9.90;99.90;;;;;;5000972;28;20285;-82
2022/04/22 01:58:14;;;;;;;26.20;13.93;;;9.90;99.90;;;;;;4999433;28;20271;-82
2022/04/22 02:00:39;;;;;;;26.53;14.33;;;9.90;99.90;;;;;;4998266;28;20188;-82
2022/04/22 02:03:05;;;;;;;24.97;14.70;;;9.90;99.90;;;;;;4999129;28;20211;-82
2022/04/22 02:05:33;;;;;;;26.17;14.60;;;9.90;99.90;;;;;;4999021;28;20265;-82
2022/04/22 02:07:59;;;;;;;27.43;15.20;;;9.90;99.90;;;;;;4998801;28;20171;-83
2022/04/22 02:10:24;;;;;;;25.73;15.53;;;10.00;99.90;;;;;;5000335;28;20216;-83
2022/04/22 02:12:50;;;;;;;26.23;14.87;;;9.90;99.90;;;;;;5002422;28;20271;-83
2022/04/22 02:16:12;;;;;;;33.93;15.53;;;9.90;99.90;;;;;;5002002;28;20234;-83
2022/04/22 02:18:41;;;;;;;25.27;14.70;;;10.00;99.90;;;;;;5002364;28;20224;-84
2022/04/22 02:21:09;;;;;;;34.23;16.13;;;10.00;99.90;;;;;;5002638;28;20652;-84
2022/04/22 02:23:36;;;;;;;31.03;16.37;;;10.00;99.90;;;;;;5002511;28;20171;-84
2022/04/22 02:26:03;;;;;;;27.37;16.00;;;10.00;99.90;;;;;;5002263;28;20232;-83
2022/04/22 02:28:32;;;;;;;27.17;15.50;;;9.90;99.90;;;;;;5001845;28;20173;-84
2022/04/22 02:31:05;;;;;;;28.23;16.17;;;10.00;99.90;;;;;;5002367;28;20177;-84
2022/04/22 02:33:32;;;;;;;28.27;15.97;;;9.90;99.90;;;;;;5003163;28;20188;-84
2022/04/22 02:35:58;;;;;;;30.23;16.67;;;9.90;99.90;;;;;;5002906;28;20587;-84
2022/04/22 02:38:23;;;;;;;30.97;16.57;;;10.00;99.90;;;;;;5001852;28;20219;-84
2022/04/22 02:46:17;;;;;;;29.87;16.67;;;10.00;99.90;;;;;;5019023;28;20252;-84
2022/04/22 02:48:43;;;;;;;29.43;16.63;;;10.00;99.90;;;;;;5000914;28;20170;-83
2022/04/22 02:51:10;;;;;;;31.43;17.70;;;10.00;99.90;;;;;;5001871;28;20183;-85
2022/04/22 02:53:36;;;;;;;32.67;16.43;;;10.00;99.90;;;;;;5000150;28;20180;-84
2022/04/22 02:56:01;;;;;;;29.13;16.67;;;9.90;99.90;;;;;;4999348;28;20198;-84
2022/04/22 02:58:27;;;;;;;30.37;16.93;;;9.90;99.90;;;;;;4999100;28;20707;-84
2022/04/22 03:00:53;;;;;;;31.57;18.33;;;9.80;99.90;;;;;;4999253;28;20245;-84
2022/04/22 03:03:18;;;;;;;32.57;17.13;;;9.80;99.90;;;;;;4999219;28;20167;-84
2022/04/22 03:05:44;;;;;;;36.63;18.43;;;9.80;99.90;;;;;;4999409;28;20188;-84
2022/04/22 03:08:10;;;;;;;32.93;18.13;;;9.80;99.90;;;;;;5000106;28;20181;-83
2022/04/22 03:10:36;;;;;;;33.97;17.57;;;9.70;99.90;;;;;;4999504;28;20771;-84
2022/04/22 03:13:03;;;;;;;32.83;18.10;;;9.80;99.90;;;;;;4999155;28;20182;-85
2022/04/22 03:15:29;;;;;;;34.00;18.37;;;9.80;99.90;;;;;;5000022;28;20272;-85
2022/04/22 03:17:55;;;;;;;29.17;17.83;;;9.90;99.90;;;;;;4999791;28;20644;-86
2022/04/22 03:20:21;;;;;;;33.77;18.87;;;9.90;99.90;;;;;;5000050;28;20263;-84
2022/04/22 03:22:46;;;;;;;33.47;17.13;;;9.80;99.90;;;;;;4999547;28;20631;-84
2022/04/22 03:25:12;;;;;;;35.13;18.17;;;9.90;99.90;;;;;;4999882;28;20176;-84
2022/04/22 03:27:38;;;;;;;31.63;18.13;;;9.80;99.90;;;;;;4999505;28;20568;-84
2022/04/22 03:30:04;;;;;;;33.13;18.87;;;9.90;99.90;;;;;;4999356;28;20172;-86
2022/04/22 03:32:30;;;;;;;31.23;18.60;;;9.90;99.90;;;;;;4999272;28;20644;-85
2022/04/22 03:34:56;;;;;;;33.57;18.43;;;9.90;99.90;;;;;;4998929;28;20254;-84
2022/04/22 03:37:22;;;;;;;33.73;18.90;;;9.90;99.90;;;;;;4998993;28;20196;-86
2022/04/22 03:39:47;;;;;;;34.37;18.40;;;9.90;99.90;;;;;;4999124;28;20581;-83
2022/04/22 03:42:13;;;;;;;30.80;18.20;;;9.90;99.90;;;;;;4999265;28;20634;-83
2022/04/22 03:44:39;;;;;;;36.00;18.70;;;9.90;99.90;;;;;;4999073;28;20172;-83
2022/04/22 03:47:07;;;;;;;32.00;18.23;;;9.90;99.90;;;;;;4999269;28;20810;-83
2022/04/22 03:49:33;;;;;;;31.00;18.20;;;9.90;99.90;;;;;;4999051;28;20219;-83
2022/04/22 03:51:59;;;;;;;31.67;17.97;;;9.90;99.90;;;;;;4998137;28;20266;-83
2022/04/22 03:54:25;;;;;;;36.67;17.97;;;9.90;99.90;;;;;;5016565;28;20203;-83
2022/04/22 03:59:35;;;;;;;31.93;18.03;;;9.80;99.90;;;;;;5015822;28;20593;-83
2022/04/22 04:02:02;;;;;;;32.63;18.93;;;9.80;99.90;;;;;;4998109;28;20168;-82
2022/04/22 04:04:28;;;;;;;29.47;17.90;;;9.80;99.90;;;;;;4998539;28;20182;-82
2022/04/22 04:06:53;;;;;;;34.70;18.77;;;9.80;99.90;;;;;;4998277;28;20195;-81
2022/04/22 04:17:36;;;;;;;31.67;18.50;;;9.70;99.90;;;;;;5015603;28;20587;-82
2022/04/22 04:25:31;;;;;;;34.17;18.17;;;9.60;99.90;;;;;;5016209;28;20229;-82
2022/04/22 04:27:57;;;;;;;32.63;18.70;;;9.50;99.90;;;;;;4998104;28;20184;-82
2022/04/22 04:30:23;;;;;;;35.70;19.43;;;9.50;99.90;;;;;;4998726;28;20185;-82
2022/04/22 04:32:49;;;;;;;39.63;19.53;;;9.40;99.90;;;;;;4998685;28;20175;-82
2022/04/22 04:35:15;;;;;;;37.87;20.10;;;9.40;99.90;;;;;;4998358;28;20230;-81
2022/04/22 04:37:41;;;;;;;35.23;19.40;;;9.40;99.90;;;;;;4998708;28;20205;-81
2022/04/22 04:40:11;;;;;;;37.10;20.73;;;9.40;99.90;;;;;;4998439;28;20211;-82
2022/04/22 04:42:37;;;;;;;37.17;21.17;;;9.50;99.90;;;;;;4998498;28;20178;-82
2022/04/22 04:45:06;;;;;;;40.27;20.80;;;9.50;99.90;;;;;;4998369;28;20228;-80
2022/04/22 04:47:40;;;;;;;39.13;21.20;;;9.50;99.90;;;;;;4998656;28;20205;-80
2022/04/22 04:50:06;;;;;;;41.03;21.40;;;9.50;99.90;;;;;;4999296;28;20206;-80
2022/04/22 04:52:33;;;;;;;35.23;20.07;;;9.50;99.90;;;;;;4999175;28;20172;-79
2022/04/22 04:54:59;;;;;;;42.03;21.33;;;9.50;99.90;;;;;;4998594;28;20308;-81
2022/04/22 04:57:24;;;;;;;38.40;20.70;;;9.50;99.90;;;;;;4998483;28;20680;-80
2022/04/22 04:59:50;;;;;;;41.33;20.67;;;9.60;99.90;;;;;;4998887;28;20231;-80
2022/04/22 05:02:16;;;;;;;38.13;20.77;;;9.70;99.90;;;;;;4998710;28;20213;-80
2022/04/22 05:04:42;;;;;;;40.83;21.53;;;9.50;99.90;;;;;;4998895;28;20178;-80
2022/04/22 05:07:07;;;;;;;37.10;21.13;;;9.40;99.90;;;;;;4998890;28;20272;-80
2022/04/22 05:09:33;;;;;;;37.73;20.97;;;9.40;99.90;;;;;;4998861;28;20173;-80
2022/04/22 05:11:59;;;;;;;38.03;21.30;;;9.30;99.90;;;;;;4998943;28;20175;-80
2022/04/22 05:14:26;;;;;;;37.77;20.53;;;9.20;99.90;;;;;;4998596;28;20176;-81
2022/04/22 05:16:54;;;;;;;38.70;21.23;;;9.30;99.90;;;;;;4998990;28;20191;-80
2022/04/22 05:19:21;;;;;;;39.87;21.77;;;9.20;99.90;;;;;;4999526;28;20211;-81
2022/04/22 05:21:47;;;;;;;40.50;22.67;;;9.20;99.90;;;;;;5002632;28;20542;-80
2022/04/22 05:24:13;;;;;;;38.03;21.70;;;9.30;99.90;;;;;;5002611;28;20172;-80
2022/04/22 05:26:39;;;;;;;41.00;21.90;;;9.30;99.90;;;;;;5020373;28;20187;-80
2022/04/22 05:29:05;;;;;;;39.77;20.93;;;9.30;99.90;;;;;;5003497;28;20274;-80
2022/04/22 05:34:14;;;;;;;43.53;20.10;;;9.40;99.90;;;;;;5020737;28;20666;-80
2022/04/22 05:36:40;;;;;;;47.27;21.43;;;9.30;99.90;;;;;;5002898;28;20200;-81
2022/04/22 05:39:08;;;;;;;38.80;20.47;;;9.30;99.90;;;;;;5002565;28;20196;-80
2022/04/22 05:41:35;;;;;;;36.47;19.77;;;9.30;99.90;;;;;;5002675;28;20170;-80
2022/04/22 05:44:04;;;;;;;40.10;21.53;;;9.40;99.90;;;;;;5003071;28;20208;-81
2022/04/22 05:46:29;;;;;;;38.27;19.53;;;9.50;99.90;;;;;;5002648;28;20260;-80
2022/04/22 05:48:55;;;;;;;39.47;20.50;;;9.40;99.90;;;;;;5003948;28;20603;-80
2022/04/22 05:51:20;;;;;;;34.77;19.63;;;9.40;99.90;;;;;;5003249;28;20208;-80
2022/04/22 05:53:48;;;;;;;36.40;19.67;;;9.50;99.90;;;;;;5003458;28;20221;-80
2022/04/22 05:56:14;;;;;;;34.83;20.17;;;9.50;99.90;;;;;;5004583;28;20204;-80
2022/04/22 05:58:39;;;;;;;34.70;19.47;;;9.60;99.90;;;;;;5004887;28;20199;-80
2022/04/22 06:01:05;;;;;;;34.07;19.50;;;9.60;99.90;;;;;;5004446;28;20213;-80
2022/04/22 06:03:31;;;;;;;41.03;20.00;;;9.70;99.90;;;;;;5012195;28;20622;-80
2022/04/22 06:05:56;;;;;;;34.33;19.40;;;9.60;99.90;;;;;;5013833;28;20226;-80
2022/04/22 06:11:06;;;;;;;35.93;20.07;;;9.70;99.90;;;;;;5031417;28;20190;-80
2022/04/22 06:13:32;;;;;;;35.17;19.63;;;9.70;99.90;;;;;;5012075;28;20177;-80
2022/04/22 06:15:58;;;;;;;38.27;20.20;;;9.80;99.90;;;;;;5011828;28;20311;-80
2022/04/22 06:18:23;;;;;;;37.60;19.83;;;9.90;99.90;;;;;;5013002;28;20200;-80
2022/04/22 06:20:51;;;;;;;37.57;19.10;;;9.90;99.90;;;;;;5011008;28;20168;-81
2022/04/22 06:23:16;;;;;;;38.17;19.43;;;9.90;99.90;;;;;;5001543;28;20232;-82
2022/04/22 06:25:45;;;;;;;40.10;20.60;;;9.90;99.90;;;;;;4998621;28;20192;-81
2022/04/22 06:28:12;;;;;;;34.50;20.27;;;10.00;99.90;;;;;;4999273;28;20644;-81
2022/04/22 06:30:40;;;;;;;37.13;20.07;;;10.10;99.90;;;;;;4997958;28;20238;-81
2022/04/22 06:33:07;;;;;;;35.73;19.90;;;10.10;99.90;;;;;;5015811;28;20418;-81
2022/04/22 06:35:33;;;;;;;34.03;19.20;;;10.10;99.90;;;;;;4997968;28;20180;-82
2022/04/22 06:38:01;;;;;;;37.23;19.93;;;10.20;99.90;;;;;;5001382;28;20665;-82
2022/04/22 06:45:56;;;;;;;35.03;18.77;;;10.40;99.90;;;;;;5016178;28;20241;-81
2022/04/22 06:48:30;;;;;;;31.93;17.63;;;10.40;99.90;;;;;;4998967;28;20181;-82
2022/04/22 06:50:56;;;;;;;34.27;18.27;;;10.40;99.90;;;;;;5002422;28;20176;-81
2022/04/22 06:53:23;;;;;;;32.03;18.33;;;10.50;99.90;;;;;;4999846;28;20716;-81
2022/04/22 06:55:50;;;;;;;33.83;17.00;;;10.70;99.90;;;;;;4997825;28;20197;-81
2022/04/22 06:58:17;;;;;;;32.47;16.87;;;10.70;99.90;;;;;;4998120;28;20236;-81
2022/04/22 07:00:44;;;;;;;28.47;16.13;;;10.80;99.90;;;;;;4998001;28;20194;-81
2022/04/22 07:03:12;;;;;;;27.67;15.43;;;11.00;99.90;;;;;;4997861;28;20171;-82
2022/04/22 07:05:39;;;;;;;26.07;15.13;;;11.00;99.90;;;;;;5015399;28;20211;-81
2022/04/22 07:08:06;;;;;;;24.77;13.90;;;10.80;99.90;;;;;;4997751;28;20175;-81
2022/04/22 07:10:36;;;;;;;26.17;14.20;;;11.00;99.90;;;;;;4997191;28;20182;-81
2022/04/22 07:13:03;;;;;;;30.43;14.43;;;11.00;99.90;;;;;;5014187;28;20213;-81
2022/04/22 07:15:29;;;;;;;24.03;13.60;;;11.20;99.90;;;;;;4997083;28;20178;-81
2022/04/22 07:17:55;;;;;;;23.43;13.27;;;11.40;99.90;;;;;;4996423;28;20183;-81
2022/04/22 07:20:22;;;;;;;24.07;12.90;;;11.00;99.90;;;;;;4996295;28;20189;-81
2022/04/22 07:22:48;;;;;;;23.60;13.10;;;11.00;99.90;;;;;;4998442;28;20175;-82
2022/04/22 07:25:14;;;;;;;24.07;12.37;;;11.50;99.90;;;;;;4997864;28;20174;-83
2022/04/22 07:27:44;;;;;;;22.83;12.67;;;11.40;99.90;;;;;;4997684;28;20205;-82
2022/04/22 07:30:14;;;;;;;21.30;12.10;;;11.50;99.90;;;;;;4997847;28;20710;-81
2022/04/22 07:32:41;;;;;;;22.43;12.07;;;11.70;99.90;;;;;;5014729;28;20559;-81
2022/04/22 07:35:12;;;;;;;22.50;11.80;;;11.80;99.90;;;;;;4997288;28;20171;-82
2022/04/22 07:37:41;;;;;;;17.70;10.93;;;11.90;99.90;;;;;;4997461;28;20196;-82
2022/04/22 07:40:08;;;;;;;21.20;11.10;;;12.20;99.90;;;;;;4997534;28;20242;-82
2022/04/22 07:42:35;;;;;;;20.10;10.13;;;12.70;99.90;;;;;;4996946;28;20172;-82
2022/04/22 07:47:49;;;;;;;19.67;10.90;;;12.60;99.90;;;;;;5015582;28;20207;-82
2022/04/22 07:50:18;;;;;;;16.07;9.67;;;12.80;99.90;;;;;;4997605;28;20182;-81
2022/04/22 07:52:44;;;;;;;15.23;9.83;;;13.20;99.90;;;;;;4996666;28;20694;-82
2022/04/22 07:55:12;;;;;;;17.60;9.83;;;12.90;99.90;;;;;;4996842;28;20182;-81
2022/04/22 07:57:40;;;;;;;15.27;10.23;;;13.10;99.90;;;;;;4996218;28;20190;-81
2022/04/22 08:00:07;;;;;;;18.47;10.07;;;13.00;99.90;;;;;;4996046;28;20706;-82
2022/04/22 08:02:33;;;;;;;17.43;9.83;;;13.10;99.90;;;;;;4995772;28;20171;-81
2022/04/22 08:04:59;;;;;;;14.17;8.80;;;13.40;99.90;;;;;;4995915;28;20191;-82
2022/04/22 08:07:25;;;;;;;15.00;8.73;;;13.50;99.90;;;;;;4995904;28;20623;-81
2022/04/22 08:09:51;;;;;;;13.70;8.30;;;14.00;99.90;;;;;;4996238;28;20188;-82
2022/04/22 08:12:19;;;;;;;16.10;8.97;;;13.80;99.90;;;;;;4996064;28;20179;-82
2022/04/22 08:14:45;;;;;;;18.90;8.40;;;14.20;99.90;;;;;;4995521;28;20188;-81
2022/04/22 08:17:11;;;;;;;13.57;8.13;;;14.60;99.90;;;;;;4996874;28;20202;-82
2022/04/22 08:19:36;;;;;;;16.03;7.67;;;14.70;99.90;;;;;;4995763;28;20225;-81
2022/04/22 08:22:02;;;;;;;13.50;7.87;;;15.00;99.90;;;;;;4995829;28;20214;-82
2022/04/22 08:24:28;;;;;;;13.57;8.33;;;14.70;99.90;;;;;;4995913;28;20652;-82
2022/04/22 08:26:55;;;;;;;14.23;8.70;;;14.20;99.90;;;;;;4995295;28;20194;-80
2022/04/22 08:29:21;;;;;;;15.77;8.60;;;14.20;99.90;;;;;;4995614;28;20182;-80
2022/04/22 08:31:47;;;;;;;17.27;8.93;;;13.70;99.90;;;;;;4995356;28;20182;-80
2022/04/22 08:34:12;;;;;;;15.07;8.37;;;13.60;99.90;;;;;;4995164;28;20236;-80
2022/04/22 08:36:38;;;;;;;14.17;8.03;;;13.90;99.90;;;;;;4995298;28;20214;-80
2022/04/22 08:39:05;;;;;;;11.27;6.63;;;14.20;99.90;;;;;;4995074;28;20282;-80
2022/04/22 08:41:35;;;;;;;13.40;8.40;;;13.80;99.90;;;;;;4995217;28;20178;-79
2022/04/22 08:44:01;;;;;;;14.13;7.83;;;13.60;99.90;;;;;;4996343;28;20178;-79
2022/04/22 08:51:56;;;;;;;12.77;8.23;;;13.80;99.90;;;;;;5014494;28;20216;-80
2022/04/22 08:54:23;;;;;;;16.57;8.33;;;13.70;99.90;;;;;;4997469;28;20187;-80
2022/04/22 08:56:52;;;;;;;17.07;7.90;;;13.90;99.90;;;;;;4999468;28;20198;-80
2022/04/22 08:59:18;;;;;;;14.37;8.13;;;13.70;99.90;;;;;;5000419;28;20697;-80
2022/04/22 09:01:44;;;;;;;11.10;7.53;;;14.20;99.90;;;;;;4999187;28;20186;-80
2022/04/22 09:04:10;;;;;;;10.47;6.93;;;14.50;99.90;;;;;;4999455;28;20210;-81
2022/04/22 09:06:37;;;;;;;12.27;7.47;;;15.10;99.90;;;;;;5000281;28;20198;-79
2022/04/22 09:09:07;;;;;;;10.50;6.73;;;15.80;99.90;;;;;;4999489;28;20747;-81
2022/04/22 09:11:42;;;;;;;10.50;6.47;;;15.50;98.80;;;;;;5016731;28;20237;-80
2022/04/22 09:14:08;;;;;;;10.30;6.83;;;15.80;99.10;;;;;;4999220;28;20174;-81
2022/04/22 09:16:33;;;;;;;18.93;6.90;;;15.90;99.20;;;;;;4999492;28;20198;-80
2022/04/22 09:19:01;;;;;;;11.20;6.57;;;15.50;99.20;;;;;;4998450;28;20206;-81
2022/04/22 09:21:29;;;;;;;12.87;6.60;;;16.10;97.80;;;;;;5017385;28;20178;-81
2022/04/22 09:23:56;;;;;;;9.60;6.53;;;15.90;97.80;;;;;;5000007;28;20640;-82
2022/04/22 09:26:26;;;;;;;9.50;5.80;;;16.30;96.10;;;;;;4999685;28;20198;-82
2022/04/22 09:29:10;;;;;;;10.63;5.73;;;16.00;95.80;;;;;;5000525;28;20655;-81
2022/04/22 09:31:51;;;;;;;14.33;6.50;;;15.60;96.80;;;;;;4999674;28;20189;-81
2022/04/22 09:34:32;;;;;;;8.63;5.67;;;15.80;97.50;;;;;;4999169;28;20585;-80
2022/04/22 09:42:52;;;;;;;9.87;4.80;;;16.00;95.50;;;;;;5016727;28;20726;-81
2022/04/22 09:45:18;;;;;;;9.83;5.53;;;16.10;94.90;;;;;;4999352;28;20194;-82
2022/04/22 09:47:55;;;;;;;7.73;4.90;;;16.20;94.20;;;;;;4999123;28;20675;-82
2022/04/22 09:50:42;;;;;;;8.90;4.90;;;16.00;94.30;;;;;;4998993;28;20178;-81
2022/04/22 09:53:09;;;;;;;8.90;5.00;;;15.50;94.30;;;;;;4999168;28;20554;-82
2022/04/22 09:55:37;;;;;;;7.43;4.60;;;15.90;94.30;;;;;;4998403;28;20524;-84
2022/04/22 09:58:02;;;;;;;11.33;5.37;;;16.10;94.00;;;;;;4998832;28;20183;-82
2022/04/22 10:00:30;;;;;;;9.40;5.13;;;16.70;94.70;;;;;;4998829;28;20244;-82
2022/04/22 10:02:57;;;;;;;14.00;5.00;;;17.00;93.30;;;;;;4999371;28;20171;-82
2022/04/22 10:05:24;;;;;;;10.33;4.83;;;17.00;94.10;;;;;;4997285;28;20225;-83
2022/04/22 10:07:53;;;;;;;6.80;4.83;;;16.90;92.10;;;;;;4998334;28;20234;-83
2022/04/22 10:10:23;;;;;;;11.37;5.13;;;17.20;92.60;;;;;;4998756;28;20644;-82
2022/04/22 10:12:49;;;;;;;9.80;5.17;;;16.70;93.00;;;;;;4997883;28;20591;-82
2022/04/22 10:15:19;;;;;;;9.17;5.20;;;16.30;92.70;;;;;;4998037;28;20663;-83
2022/04/22 10:17:48;;;;;;;12.13;5.50;;;16.10;92.80;;;;;;4998156;28;20190;-83
2022/04/22 10:20:14;;;;;;;9.10;5.37;;;15.80;94.30;;;;;;4998559;28;20297;-81
2022/04/22 10:22:41;;;;;;;12.80;5.10;;;16.00;94.40;;;;;;4998308;28;20175;-80
2022/04/22 10:25:09;;;;;;;9.90;5.20;;;15.80;93.70;;;;;;4998243;28;20432;-81
2022/04/22 10:27:37;;;;;;;9.47;5.47;;;15.90;94.80;;;;;;4998408;28;20186;-82
2022/04/22 10:30:05;;;;;;;10.43;5.00;;;15.70;92.70;;;;;;4998480;28;20277;-82
2022/04/22 10:32:33;;;;;;;9.60;4.63;;;15.80;92.90;;;;;;4998090;28;20174;-80
2022/04/22 10:35:00;;;;;;;7.73;5.07;;;15.70;93.00;;;;;;4998901;28;20576;-82
2022/04/22 10:37:27;;;;;;;11.30;6.00;;;15.30;95.10;;;;;;4998319;28;20195;-82
2022/04/22 10:39:57;;;;;;;9.27;5.30;;;15.20;93.50;;;;;;4998477;28;20679;-81
2022/04/22 10:42:37;;;;;;;7.50;5.37;;;15.20;94.40;;;;;;4998779;28;20221;-81
2022/04/22 10:47:53;;;;;;;14.13;5.10;;;15.20;93.70;;;;;;5016607;28;20265;-80
2022/04/22 10:50:34;;;;;;;9.33;5.43;;;15.00;94.20;;;;;;4998828;28;20430;-81
2022/04/22 10:53:10;;;;;;;11.03;5.77;;;14.80;93.40;;;;;;4997846;28;20651;-81
2022/04/22 10:55:38;;;;;;;10.20;5.87;;;14.80;94.10;;;;;;4997729;28;20188;-80
2022/04/22 10:58:13;;;;;;;10.60;5.83;;;14.70;94.10;;;;;;5015511;28;20178;-81
2022/04/22 11:00:43;;;;;;;9.63;5.23;;;15.00;93.80;;;;;;4998035;28;20185;-80
2022/04/22 11:03:13;;;;;;;9.90;5.77;;;15.40;93.30;;;;;;4998904;28;20611;-81
2022/04/22 11:05:43;;;;;;;10.90;6.17;;;16.50;91.80;;;;;;4999002;28;20175;-81
2022/04/22 11:08:24;;;;;;;9.77;5.63;;;18.00;90.50;;;;;;4998520;28;20169;-81
2022/04/22 11:10:51;;;;;;;11.13;6.00;;;17.90;90.10;;;;;;4998009;28;20258;-83
2022/04/22 11:13:33;;;;;;;9.87;6.10;;;17.60;90.80;;;;;;4997770;28;20178;-80
2022/04/22 11:16:12;;;;;;;10.10;6.23;;;17.60;89.70;;;;;;4997909;28;20282;-82
2022/04/22 11:18:40;;;;;;;11.40;6.40;;;16.70;92.10;;;;;;4997933;28;20206;-82
2022/04/22 11:21:10;;;;;;;10.17;6.23;;;16.60;92.00;;;;;;4996983;28;20171;-81
2022/04/22 11:23:40;;;;;;;10.20;6.27;;;17.20;90.90;;;;;;4997956;28;20166;-81
2022/04/22 11:26:06;;;;;;;11.93;6.23;;;16.60;92.00;;;;;;4997754;28;20221;-81
2022/04/22 11:28:37;;;;;;;13.33;6.07;;;15.90;92.50;;;;;;4997983;28;20183;-82
2022/04/22 11:31:05;;;;;;;13.17;6.50;;;15.90;93.20;;;;;;4997429;28;20205;-82
2022/04/22 11:33:45;;;;;;;8.53;6.13;;;15.90;93.20;;;;;;4996784;28;20208;-81
2022/04/22 11:36:11;;;;;;;13.03;7.73;;;15.60;92.70;;;;;;4996923;28;20248;-82
2022/04/22 11:38:47;;;;;;;12.47;7.00;;;15.50;93.00;;;;;;4996650;28;20202;-80
2022/04/22 11:41:13;;;;;;;9.53;6.63;;;15.60;93.30;;;;;;4996706;28;20166;-81
2022/04/22 11:43:39;;;;;;;10.47;6.80;;;15.50;93.30;;;;;;4996763;28;20167;-82
2022/04/22 11:46:04;;;;;;;15.30;6.60;;;15.50;93.70;;;;;;4996341;28;20192;-81
2022/04/22 11:48:30;;;;;;;10.97;6.70;;;15.50;93.70;;;;;;4996636;28;20671;-80
2022/04/22 11:50:58;;;;;;;14.37;7.27;;;15.50;93.90;;;;;;4996476;28;20181;-82
2022/04/22 11:53:34;;;;;;;10.23;6.53;;;15.40;94.20;;;;;;4996447;28;20200;-81
2022/04/22 11:56:07;;;;;;;13.17;7.03;;;15.70;94.60;;;;;;4996269;28;20201;-80
2022/04/22 11:58:33;;;;;;;11.97;6.60;;;15.70;94.70;;;;;;4996890;28;20290;-81
2022/04/22 12:06:28;;;;;;;10.57;6.40;;;15.20;94.80;;;;;;5014201;28;20222;-81
2022/04/22 12:09:03;;;;;;;10.10;6.47;;;15.40;94.40;;;;;;5013928;28;20170;-82
2022/04/22 12:11:29;;;;;;;10.00;6.33;;;15.30;93.40;;;;;;4996073;28;20639;-81
2022/04/22 12:13:56;;;;;;;12.70;7.07;;;15.30;94.50;;;;;;4995891;28;20187;-80
2022/04/22 12:16:27;;;;;;;11.50;6.90;;;15.30;93.70;;;;;;4996426;28;20203;-81
2022/04/22 12:18:54;;;;;;;16.27;7.37;;;15.10;94.20;;;;;;4996533;28;20693;-80
2022/04/22 12:21:22;;;;;;;12.83;6.87;;;15.30;94.50;;;;;;4997131;28;20178;-82
2022/04/22 12:23:49;;;;;;;11.17;7.20;;;15.20;95.80;;;;;;4997307;28;20175;-82
2022/04/22 12:26:25;;;;;;;12.07;7.27;;;15.20;95.60;;;;;;4996766;28;20205;-81
2022/04/22 12:29:12;;;;;;;17.13;7.47;;;14.90;94.80;;;;;;4996346;28;20170;-81
2022/04/22 12:31:41;;;;;;;14.17;7.03;;;14.90;95.70;;;;;;4996710;28;20170;-80
2022/04/22 12:34:10;;;;;;;13.80;6.80;;;15.00;96.00;;;;;;4996465;28;20192;-80
2022/04/22 12:36:54;;;;;;;12.33;7.33;;;14.80;95.80;;;;;;4996984;28;20233;-80
2022/04/22 12:39:33;;;;;;;10.00;6.60;;;15.00;95.80;;;;;;4995976;28;20619;-80
2022/04/22 12:41:58;;;;;;;14.40;6.83;;;15.20;95.90;;;;;;4996172;28;20221;-82
2022/04/22 12:44:25;;;;;;;13.03;7.63;;;15.40;95.60;;;;;;4995446;28;20655;-79
2022/04/22 12:52:25;;;;;;;14.00;7.60;;;15.70;94.10;;;;;;5012181;28;20254;-80
2022/04/22 12:55:08;;;;;;;13.33;7.37;;;15.80;94.70;;;;;;4995209;28;20189;-80
2022/04/22 12:57:36;;;;;;;13.77;7.63;;;15.70;94.20;;;;;;4997860;28;20198;-80
2022/04/22 13:00:13;;;;;;;11.70;7.47;;;15.40;94.60;;;;;;4998770;28;20207;-80
2022/04/22 13:02:39;;;;;;;17.90;7.93;;;15.40;95.00;;;;;;4995180;28;20209;-80
2022/04/22 13:05:09;;;;;;;14.00;8.07;;;15.60;94.40;;;;;;4994620;28;20194;-80
2022/04/22 13:07:46;;;;;;;18.67;7.40;;;15.40;94.40;;;;;;4994536;28;20222;-79
2022/04/22 13:10:13;;;;;;;19.43;8.13;;;15.20;94.80;;;;;;4994954;28;20170;-80
2022/04/22 13:12:42;;;;;;;15.57;7.70;;;15.50;95.90;;;;;;4994921;28;20235;-80
2022/04/22 13:15:10;;;;;;;24.63;8.67;;;15.40;94.50;;;;;;4996002;28;20204;-80
2022/04/22 13:17:40;;;;;;;18.07;7.50;;;15.50;94.90;;;;;;4994869;28;20191;-80
2022/04/22 13:20:07;;;;;;;10.90;6.87;;;15.50;95.00;;;;;;4994989;28;20199;-80
2022/04/22 13:22:34;;;;;;;10.87;6.70;;;15.50;94.60;;;;;;4995113;28;20175;-79
2022/04/22 13:25:00;;;;;;;13.27;7.57;;;15.70;93.90;;;;;;4995307;28;20191;-79
2022/04/22 13:27:25;;;;;;;14.43;7.53;;;16.00;93.50;;;;;;4995384;28;20695;-79
2022/04/22 13:29:51;;;;;;;11.43;6.70;;;15.90;93.20;;;;;;4995588;28;20668;-80
2022/04/22 13:32:17;;;;;;;13.40;6.97;;;15.90;93.80;;;;;;4995899;28;20174;-80
2022/04/22 13:34:42;;;;;;;15.30;7.60;;;16.00;93.00;;;;;;4995633;28;20181;-79
2022/04/22 13:37:09;;;;;;;12.47;6.90;;;15.80;93.70;;;;;;4995531;28;20683;-79
2022/04/22 13:39:35;;;;;;;13.77;7.63;;;15.50;93.10;;;;;;4994930;28;20205;-79
2022/04/22 13:42:01;;;;;;;18.83;6.30;;;15.60;93.80;;;;;;4998040;28;20182;-80
2022/04/22 13:52:40;;;;;;;11.20;4.80;;;16.10;92.90;;;;;;5016853;28;20221;-80